sensor_id;sensor_type;location;lat;lon;timestamp;P1;durP1;ratioP1;P2;durP2;ratioP2
59681;SDS011;45548;39.530;-9.118;2022-10-13T08:46:58;66.35;;;44.72;;
59681;SDS011;45548;39.530;-9.118;2022-10-13T08:49:31;112.63;;;47.67;;
59681;SDS011;45548;39.530;-9.118;2022-10-13T08:51:56;70.18;;;40.33;;
59681;SDS011;45548;39.530;-9.118;2022-10-13T08:54:23;75.18;;;42.42;;
59681;SDS011;45548;39.530;-9.118;2022-10-13T08:56:50;89.85;;;38.38;;
59681;SDS011;45548;39.530;-9.118;2022-10-13T08:59:16;44.75;;;33.97;;
59681;SDS011;45548;39.530;-9.118;2022-10-13T09:01:43;56.38;;;35.42;;
59681;SDS011;45548;39.530;-9.118;2022-10-13T09:10:02;45.88;;;30.55;;
59681;SDS011;45548;39.530;-9.118;2022-10-13T09:12:31;48.10;;;31.98;;
59681;SDS011;45548;39.530;-9.118;2022-10-13T09:14:59;68.43;;;34.10;;
59681;SDS011;45548;39.530;-9.118;2022-10-13T09:17:27;44.50;;;30.23;;
59681;SDS011;45548;39.530;-9.118;2022-10-13T09:22:37;88.22;;;30.90;;
59681;SDS011;45548;39.530;-9.118;2022-10-13T09:27:49;44.05;;;31.08;;
59681;SDS011;45548;39.530;-9.118;2022-10-13T09:30:59;42.95;;;31.00;;
59681;SDS011;45548;39.530;-9.118;2022-10-13T09:35:36;45.85;;;31.00;;
59681;SDS011;45548;39.530;-9.118;2022-10-13T09:38:08;44.35;;;28.30;;
59681;SDS011;45548;39.530;-9.118;2022-10-13T09:40:37;38.22;;;28.55;;
59681;SDS011;45548;39.530;-9.118;2022-10-13T09:43:14;38.92;;;28.58;;
59681;SDS011;45548;39.530;-9.118;2022-10-13T09:45:54;42.08;;;29.17;;
59681;SDS011;45548;39.530;-9.118;2022-10-13T09:48:32;74.28;;;31.05;;
59681;SDS011;45548;39.530;-9.118;2022-10-13T09:51:00;44.08;;;28.55;;
59681;SDS011;45548;39.530;-9.118;2022-10-13T09:53:37;49.05;;;28.60;;
59681;SDS011;45548;39.530;-9.118;2022-10-13T10:01:33;72.10;;;29.73;;
59681;SDS011;45548;39.530;-9.118;2022-10-13T10:04:11;111.18;;;33.28;;
59681;SDS011;45548;39.530;-9.118;2022-10-13T10:07:38;73.53;;;33.03;;
59681;SDS011;45548;39.530;-9.118;2022-10-13T10:15:08;48.85;;;28.15;;
59681;SDS011;45548;39.530;-9.118;2022-10-13T10:18:45;35.63;;;25.45;;
59681;SDS011;45548;39.530;-9.118;2022-10-13T10:26:21;148.35;;;30.65;;
59681;SDS011;45548;39.530;-9.118;2022-10-13T10:30:17;42.13;;;28.17;;
59681;SDS011;45548;39.530;-9.118;2022-10-13T10:44:37;38.58;;;26.92;;
59681;SDS011;45548;39.530;-9.118;2022-10-13T10:48:13;40.47;;;26.13;;
59681;SDS011;45548;39.530;-9.118;2022-10-13T10:52:00;63.95;;;31.23;;
59681;SDS011;45548;39.530;-9.118;2022-10-13T11:02:58;39.67;;;30.42;;
59681;SDS011;45548;39.530;-9.118;2022-10-13T11:06:34;37.65;;;27.23;;
59681;SDS011;45548;39.530;-9.118;2022-10-13T11:13:59;96.25;;;31.33;;
59681;SDS011;45548;39.530;-9.118;2022-10-13T11:17:33;35.15;;;27.45;;
59681;SDS011;45548;39.530;-9.118;2022-10-13T11:21:16;35.92;;;27.33;;
59681;SDS011;45548;39.530;-9.118;2022-10-13T11:24:49;49.70;;;30.80;;
59681;SDS011;45548;39.530;-9.118;2022-10-13T11:32:04;52.00;;;28.98;;
59681;SDS011;45548;39.530;-9.118;2022-10-13T11:35:48;36.40;;;26.90;;
59681;SDS011;45548;39.530;-9.118;2022-10-13T11:54:12;33.17;;;23.48;;
59681;SDS011;45548;39.530;-9.118;2022-10-13T11:57:41;39.40;;;26.17;;
59681;SDS011;45548;39.530;-9.118;2022-10-13T12:01:11;31.25;;;22.50;;
59681;SDS011;45548;39.530;-9.118;2022-10-13T12:04:38;30.77;;;22.85;;
59681;SDS011;45548;39.530;-9.118;2022-10-13T12:08:03;30.63;;;22.05;;
59681;SDS011;45548;39.530;-9.118;2022-10-13T12:11:32;27.95;;;21.30;;
59681;SDS011;45548;39.530;-9.118;2022-10-13T12:14:58;42.50;;;24.83;;
59681;SDS011;45548;39.530;-9.118;2022-10-13T12:21:58;39.58;;;24.08;;
59681;SDS011;45548;39.530;-9.118;2022-10-13T12:25:24;30.80;;;21.67;;
59681;SDS011;45548;39.530;-9.118;2022-10-13T12:29:11;39.15;;;24.77;;
59681;SDS011;45548;39.530;-9.118;2022-10-13T12:32:51;33.97;;;24.92;;
59681;SDS011;45548;39.530;-9.118;2022-10-13T12:40:00;29.73;;;20.27;;
59681;SDS011;45548;39.530;-9.118;2022-10-13T12:43:25;28.20;;;20.90;;
59681;SDS011;45548;39.530;-9.118;2022-10-13T12:47:00;24.90;;;19.40;;
59681;SDS011;45548;39.530;-9.118;2022-10-13T12:53:51;29.08;;;21.08;;
59681;SDS011;45548;39.530;-9.118;2022-10-13T12:57:36;24.23;;;19.15;;
59681;SDS011;45548;39.530;-9.118;2022-10-13T13:01:08;55.65;;;21.60;;
59681;SDS011;45548;39.530;-9.118;2022-10-13T13:04:47;29.23;;;22.48;;
59681;SDS011;45548;39.530;-9.118;2022-10-13T13:15:38;44.30;;;24.40;;
59681;SDS011;45548;39.530;-9.118;2022-10-13T13:19:02;35.20;;;24.08;;
59681;SDS011;45548;39.530;-9.118;2022-10-13T13:22:42;29.35;;;21.45;;
59681;SDS011;45548;39.530;-9.118;2022-10-13T13:29:58;25.73;;;17.02;;
59681;SDS011;45548;39.530;-9.118;2022-10-13T13:33:23;25.83;;;17.10;;
59681;SDS011;45548;39.530;-9.118;2022-10-13T13:35:50;27.30;;;16.17;;
59681;SDS011;45548;39.530;-9.118;2022-10-13T13:38:16;24.48;;;15.48;;
59681;SDS011;45548;39.530;-9.118;2022-10-13T13:40:42;25.25;;;16.67;;
59681;SDS011;45548;39.530;-9.118;2022-10-13T13:43:08;29.23;;;17.02;;
59681;SDS011;45548;39.530;-9.118;2022-10-13T13:45:34;22.42;;;13.60;;
59681;SDS011;45548;39.530;-9.118;2022-10-13T13:48:00;22.10;;;13.23;;
59681;SDS011;45548;39.530;-9.118;2022-10-13T13:50:26;37.05;;;15.13;;
59681;SDS011;45548;39.530;-9.118;2022-10-13T13:52:57;19.50;;;13.25;;
59681;SDS011;45548;39.530;-9.118;2022-10-13T13:55:24;17.35;;;10.43;;
59681;SDS011;45548;39.530;-9.118;2022-10-13T13:57:50;19.15;;;12.02;;
59681;SDS011;45548;39.530;-9.118;2022-10-13T14:00:26;32.45;;;11.85;;
59681;SDS011;45548;39.530;-9.118;2022-10-13T14:02:51;20.73;;;12.43;;
59681;SDS011;45548;39.530;-9.118;2022-10-13T14:05:17;15.50;;;9.90;;
59681;SDS011;45548;39.530;-9.118;2022-10-13T14:07:44;74.32;;;14.15;;
59681;SDS011;45548;39.530;-9.118;2022-10-13T14:10:24;15.70;;;9.63;;
59681;SDS011;45548;39.530;-9.118;2022-10-13T14:12:54;23.10;;;12.50;;
59681;SDS011;45548;39.530;-9.118;2022-10-13T14:15:20;18.15;;;10.90;;
59681;SDS011;45548;39.530;-9.118;2022-10-13T14:17:46;19.20;;;11.82;;
59681;SDS011;45548;39.530;-9.118;2022-10-13T14:20:11;21.20;;;12.52;;
59681;SDS011;45548;39.530;-9.118;2022-10-13T14:22:37;21.83;;;13.52;;
59681;SDS011;45548;39.530;-9.118;2022-10-13T14:25:03;24.17;;;12.80;;
59681;SDS011;45548;39.530;-9.118;2022-10-13T14:27:29;20.95;;;11.80;;
59681;SDS011;45548;39.530;-9.118;2022-10-13T14:29:55;30.35;;;12.07;;
59681;SDS011;45548;39.530;-9.118;2022-10-13T14:32:21;17.83;;;12.25;;
59681;SDS011;45548;39.530;-9.118;2022-10-13T14:34:46;22.60;;;12.30;;
59681;SDS011;45548;39.530;-9.118;2022-10-13T14:37:12;33.38;;;13.25;;
59681;SDS011;45548;39.530;-9.118;2022-10-13T14:39:37;23.73;;;14.02;;
59681;SDS011;45548;39.530;-9.118;2022-10-13T14:42:03;33.60;;;14.43;;
59681;SDS011;45548;39.530;-9.118;2022-10-13T14:44:29;21.10;;;12.48;;
59681;SDS011;45548;39.530;-9.118;2022-10-13T14:46:54;22.90;;;12.48;;
59681;SDS011;45548;39.530;-9.118;2022-10-13T14:49:20;27.35;;;14.43;;
59681;SDS011;45548;39.530;-9.118;2022-10-13T14:51:45;38.97;;;14.88;;
59681;SDS011;45548;39.530;-9.118;2022-10-13T14:54:11;22.02;;;11.98;;
59681;SDS011;45548;39.530;-9.118;2022-10-13T14:56:36;25.48;;;14.95;;
59681;SDS011;45548;39.530;-9.118;2022-10-13T14:59:03;23.10;;;12.85;;
59681;SDS011;45548;39.530;-9.118;2022-10-13T15:01:31;23.10;;;12.60;;
59681;SDS011;45548;39.530;-9.118;2022-10-13T15:03:58;30.90;;;13.85;;
59681;SDS011;45548;39.530;-9.118;2022-10-13T15:06:25;27.77;;;11.43;;
59681;SDS011;45548;39.530;-9.118;2022-10-13T15:08:51;21.70;;;11.20;;
59681;SDS011;45548;39.530;-9.118;2022-10-13T15:11:18;17.38;;;10.40;;
59681;SDS011;45548;39.530;-9.118;2022-10-13T15:14:42;21.45;;;10.60;;
59681;SDS011;45548;39.530;-9.118;2022-10-13T15:18:12;19.15;;;9.70;;
59681;SDS011;45548;39.530;-9.118;2022-10-13T15:20:51;19.38;;;9.32;;
59681;SDS011;45548;39.530;-9.118;2022-10-13T15:27:28;24.00;;;10.68;;
59681;SDS011;45548;39.530;-9.118;2022-10-13T15:30:53;52.85;;;11.15;;
59681;SDS011;45548;39.530;-9.118;2022-10-13T15:34:30;42.05;;;9.07;;
59681;SDS011;45548;39.530;-9.118;2022-10-13T15:37:55;18.02;;;8.68;;
59681;SDS011;45548;39.530;-9.118;2022-10-13T15:41:19;17.02;;;7.78;;
59681;SDS011;45548;39.530;-9.118;2022-10-13T15:44:43;19.50;;;8.65;;
59681;SDS011;45548;39.530;-9.118;2022-10-13T15:48:08;119.85;;;12.70;;
59681;SDS011;45548;39.530;-9.118;2022-10-13T15:51:33;20.48;;;8.70;;
59681;SDS011;45548;39.530;-9.118;2022-10-13T15:55:01;19.13;;;8.45;;
59681;SDS011;45548;39.530;-9.118;2022-10-13T15:58:25;61.45;;;11.57;;
59681;SDS011;45548;39.530;-9.118;2022-10-13T16:01:49;16.38;;;7.95;;
59681;SDS011;45548;39.530;-9.118;2022-10-13T16:05:15;17.17;;;7.47;;
59681;SDS011;45548;39.530;-9.118;2022-10-13T16:08:40;20.73;;;9.40;;
59681;SDS011;45548;39.530;-9.118;2022-10-13T16:12:04;18.98;;;6.63;;
59681;SDS011;45548;39.530;-9.118;2022-10-13T16:15:28;84.63;;;9.65;;
59681;SDS011;45548;39.530;-9.118;2022-10-13T16:18:53;78.05;;;10.52;;
59681;SDS011;45548;39.530;-9.118;2022-10-13T16:22:17;20.08;;;8.25;;
59681;SDS011;45548;39.530;-9.118;2022-10-13T16:25:41;20.50;;;7.15;;
59681;SDS011;45548;39.530;-9.118;2022-10-13T16:29:05;62.13;;;8.25;;
59681;SDS011;45548;39.530;-9.118;2022-10-13T16:32:30;18.73;;;6.43;;
59681;SDS011;45548;39.530;-9.118;2022-10-13T16:36:00;15.52;;;5.75;;
59681;SDS011;45548;39.530;-9.118;2022-10-13T16:39:24;12.68;;;4.95;;
59681;SDS011;45548;39.530;-9.118;2022-10-13T16:42:48;14.63;;;5.53;;
59681;SDS011;45548;39.530;-9.118;2022-10-13T16:46:13;12.70;;;4.57;;
59681;SDS011;45548;39.530;-9.118;2022-10-13T16:49:38;63.15;;;8.02;;
59681;SDS011;45548;39.530;-9.118;2022-10-13T16:53:02;17.33;;;5.20;;
59681;SDS011;45548;39.530;-9.118;2022-10-13T16:56:26;11.98;;;3.90;;
59681;SDS011;45548;39.530;-9.118;2022-10-13T16:59:52;14.52;;;4.18;;
59681;SDS011;45548;39.530;-9.118;2022-10-13T17:03:16;14.65;;;4.97;;
59681;SDS011;45548;39.530;-9.118;2022-10-13T17:06:40;13.35;;;4.47;;
59681;SDS011;45548;39.530;-9.118;2022-10-13T17:10:04;28.92;;;5.55;;
59681;SDS011;45548;39.530;-9.118;2022-10-13T17:13:29;13.02;;;5.28;;
59681;SDS011;45548;39.530;-9.118;2022-10-13T17:16:53;12.07;;;4.00;;
59681;SDS011;45548;39.530;-9.118;2022-10-13T17:20:17;19.92;;;4.68;;
59681;SDS011;45548;39.530;-9.118;2022-10-13T17:23:42;13.57;;;4.90;;
59681;SDS011;45548;39.530;-9.118;2022-10-13T17:27:11;22.02;;;5.43;;
59681;SDS011;45548;39.530;-9.118;2022-10-13T17:30:37;48.63;;;6.03;;
59681;SDS011;45548;39.530;-9.118;2022-10-13T17:34:01;14.82;;;4.60;;
59681;SDS011;45548;39.530;-9.118;2022-10-13T17:37:25;16.10;;;4.65;;
59681;SDS011;45548;39.530;-9.118;2022-10-13T17:40:49;16.33;;;5.13;;
59681;SDS011;45548;39.530;-9.118;2022-10-13T17:44:13;14.27;;;4.53;;
59681;SDS011;45548;39.530;-9.118;2022-10-13T17:47:37;8.88;;;3.30;;
59681;SDS011;45548;39.530;-9.118;2022-10-13T17:51:01;14.57;;;3.85;;
59681;SDS011;45548;39.530;-9.118;2022-10-13T17:54:25;12.50;;;4.10;;
59681;SDS011;45548;39.530;-9.118;2022-10-13T17:57:49;23.20;;;5.22;;
59681;SDS011;45548;39.530;-9.118;2022-10-13T18:01:16;44.55;;;6.38;;
59681;SDS011;45548;39.530;-9.118;2022-10-13T18:04:40;28.77;;;6.53;;
59681;SDS011;45548;39.530;-9.118;2022-10-13T18:08:07;16.02;;;4.65;;
59681;SDS011;45548;39.530;-9.118;2022-10-13T18:11:33;12.50;;;3.10;;
59681;SDS011;45548;39.530;-9.118;2022-10-13T18:14:57;55.05;;;8.20;;
59681;SDS011;45548;39.530;-9.118;2022-10-13T18:18:25;18.35;;;5.45;;
59681;SDS011;45548;39.530;-9.118;2022-10-13T18:21:49;60.75;;;6.90;;
59681;SDS011;45548;39.530;-9.118;2022-10-13T18:25:13;24.25;;;4.47;;
59681;SDS011;45548;39.530;-9.118;2022-10-13T18:28:39;76.53;;;5.93;;
59681;SDS011;45548;39.530;-9.118;2022-10-13T18:32:03;95.68;;;7.03;;
59681;SDS011;45548;39.530;-9.118;2022-10-13T18:35:28;94.55;;;7.57;;
59681;SDS011;45548;39.530;-9.118;2022-10-13T18:38:55;122.10;;;6.90;;
59681;SDS011;45548;39.530;-9.118;2022-10-13T18:42:03;73.55;;;5.22;;
59681;SDS011;45548;39.530;-9.118;2022-10-13T18:45:27;70.38;;;5.32;;
59681;SDS011;45548;39.530;-9.118;2022-10-13T18:48:51;44.00;;;3.97;;
59681;SDS011;45548;39.530;-9.118;2022-10-13T18:52:15;122.72;;;8.13;;
59681;SDS011;45548;39.530;-9.118;2022-10-13T18:54:41;64.63;;;4.10;;
59681;SDS011;45548;39.530;-9.118;2022-10-13T18:57:09;89.10;;;6.05;;
59681;SDS011;45548;39.530;-9.118;2022-10-13T18:59:35;104.00;;;7.72;;
59681;SDS011;45548;39.530;-9.118;2022-10-13T19:02:04;49.70;;;3.22;;
59681;SDS011;45548;39.530;-9.118;2022-10-13T19:05:28;57.22;;;4.50;;
59681;SDS011;45548;39.530;-9.118;2022-10-13T19:08:58;126.95;;;8.13;;
59681;SDS011;45548;39.530;-9.118;2022-10-13T19:12:22;82.25;;;4.00;;
59681;SDS011;45548;39.530;-9.118;2022-10-13T19:15:47;58.60;;;3.92;;
59681;SDS011;45548;39.530;-9.118;2022-10-13T19:19:11;55.28;;;3.25;;
59681;SDS011;45548;39.530;-9.118;2022-10-13T19:22:35;51.70;;;3.65;;
59681;SDS011;45548;39.530;-9.118;2022-10-13T19:26:07;27.10;;;2.00;;
59681;SDS011;45548;39.530;-9.118;2022-10-13T19:29:32;43.28;;;2.90;;
59681;SDS011;45548;39.530;-9.118;2022-10-13T19:32:56;65.55;;;4.45;;
59681;SDS011;45548;39.530;-9.118;2022-10-13T19:39:44;76.10;;;4.72;;
59681;SDS011;45548;39.530;-9.118;2022-10-13T19:43:11;58.97;;;4.40;;
59681;SDS011;45548;39.530;-9.118;2022-10-13T19:46:36;96.13;;;5.85;;
59681;SDS011;45548;39.530;-9.118;2022-10-13T19:50:00;78.35;;;6.38;;
59681;SDS011;45548;39.530;-9.118;2022-10-13T19:53:24;40.67;;;5.35;;
59681;SDS011;45548;39.530;-9.118;2022-10-13T19:56:48;19.95;;;4.32;;
59681;SDS011;45548;39.530;-9.118;2022-10-13T20:00:13;24.10;;;5.82;;
59681;SDS011;45548;39.530;-9.118;2022-10-13T20:03:37;57.20;;;7.65;;
59681;SDS011;45548;39.530;-9.118;2022-10-13T20:07:01;23.52;;;6.35;;
59681;SDS011;45548;39.530;-9.118;2022-10-13T20:10:25;27.67;;;6.22;;
59681;SDS011;45548;39.530;-9.118;2022-10-13T20:13:49;21.45;;;6.60;;
59681;SDS011;45548;39.530;-9.118;2022-10-13T20:17:14;19.50;;;7.03;;
59681;SDS011;45548;39.530;-9.118;2022-10-13T20:20:38;34.63;;;7.70;;
59681;SDS011;45548;39.530;-9.118;2022-10-13T20:24:04;19.38;;;6.72;;
59681;SDS011;45548;39.530;-9.118;2022-10-13T20:27:28;98.13;;;13.23;;
59681;SDS011;45548;39.530;-9.118;2022-10-13T20:30:52;21.25;;;8.10;;
59681;SDS011;45548;39.530;-9.118;2022-10-13T20:34:16;21.58;;;8.15;;
59681;SDS011;45548;39.530;-9.118;2022-10-13T20:37:40;17.33;;;8.07;;
59681;SDS011;45548;39.530;-9.118;2022-10-13T20:41:24;35.58;;;6.78;;
59681;SDS011;45548;39.530;-9.118;2022-10-13T20:44:48;33.72;;;6.63;;
